Terminal Aerodrome Forecast
Issued by NWS Jackson, KY

Home | Current Version | Previous Version | Graphics & Text | Print | Product List | Glossary On
Versions: 1 2 3 4 5 6 7 8 9 10 11 12 13 14 15 16 17 18 19 20 21
000
FTUS43 KJKL 230500
TAFJKL
TAF
KJKL 230521Z 2306/2406 VRB03KT P6SM SKC
     FM230900 VRB03KT 5SM BR SKC
     FM231000 VRB03KT 2SM BR FEW003 SCT045
     FM231400 25006KT P6SM VCSH BKN050
     FM232000 29005KT 3SM -TSRA BKN030CB
     FM240000 VRB04KT P6SM VCTS BKN020CB=

USA.gov is the U.S. government's official web portal to all federal, state and local government web resources and services.